createdAt,value
2019-03-23T00:00:02.186Z,96024.84
2019-03-23T00:03:10.932Z,96019.97
2019-03-23T00:06:30.221Z,96010.47
2019-03-23T00:09:30.319Z,96008.27
2019-03-23T00:12:38.930Z,96017.68
2019-03-23T00:15:47.137Z,96014.81
2019-03-23T00:18:55.532Z,96012.86
2019-03-23T00:22:04.357Z,96010.00
2019-03-23T00:25:12.651Z,96009.72
2019-03-23T00:28:21.218Z,96004.45
2019-03-23T00:31:29.472Z,96004.41
2019-03-23T00:34:37.851Z,95996.80
2019-03-23T00:37:46.756Z,96000.92
2019-03-23T00:40:55.235Z,95986.87
2019-03-23T00:44:04.135Z,95987.59
2019-03-23T00:47:13.286Z,95988.86
2019-03-23T00:50:21.487Z,95986.52
2019-03-23T00:53:30.192Z,95982.83
2019-03-23T00:56:38.410Z,95980.25
2019-03-23T00:59:46.559Z,95983.34
2019-03-23T01:02:55.177Z,95988.66
2019-03-23T01:06:03.728Z,95984.11
2019-03-23T01:09:12.239Z,95982.00
2019-03-23T01:12:20.915Z,95977.77
2019-03-23T01:15:29.249Z,95975.18
2019-03-23T01:18:37.531Z,95981.79
2019-03-23T01:21:46.048Z,95974.11
2019-03-23T01:24:54.277Z,95968.05
2019-03-23T01:28:02.563Z,95972.22
2019-03-23T01:31:11.288Z,95967.80
2019-03-23T01:34:20.033Z,95969.87
2019-03-23T01:37:28.397Z,95964.67
2019-03-23T01:40:37.026Z,95967.05
2019-03-23T01:43:45.502Z,95966.25
2019-03-23T01:46:53.741Z,95970.16
2019-03-23T01:50:02.280Z,95976.42
2019-03-23T01:53:10.704Z,95969.53
2019-03-23T01:56:18.979Z,95970.42
2019-03-23T01:59:27.193Z,95971.70
2019-03-23T02:02:35.436Z,95967.53
2019-03-23T02:05:43.716Z,95968.33
2019-03-23T02:08:51.920Z,95967.19
2019-03-23T02:12:00.036Z,95964.05
2019-03-23T02:15:09.881Z,95966.19
2019-03-23T02:18:18.094Z,95964.88
2019-03-23T02:21:26.541Z,95965.81
2019-03-23T02:24:35.006Z,95970.02
2019-03-23T02:27:43.535Z,95967.13
2019-03-23T02:30:51.752Z,95969.22
2019-03-23T02:33:59.934Z,95964.09
2019-03-23T02:37:08.394Z,95962.44
2019-03-23T02:40:16.783Z,95963.05
2019-03-23T02:43:25.233Z,95955.20
2019-03-23T02:46:33.418Z,95950.41
2019-03-23T02:49:41.382Z,95949.61
2019-03-23T02:52:49.566Z,95952.70
2019-03-23T02:55:57.658Z,95952.95
2019-03-23T02:59:05.969Z,95945.57
2019-03-23T03:02:14.390Z,95949.50
2019-03-23T03:05:22.670Z,95948.74
2019-03-23T03:08:31.014Z,95951.05
2019-03-23T03:11:39.061Z,95949.58
2019-03-23T03:14:47.024Z,95949.73
2019-03-23T03:17:55.242Z,95945.65
2019-03-23T03:21:03.890Z,95951.16
2019-03-23T03:24:12.303Z,95950.23
2019-03-23T03:27:20.613Z,95954.13
2019-03-23T03:30:29.092Z,95952.06
2019-03-23T03:33:37.158Z,95943.38
2019-03-23T03:36:45.235Z,95944.22
2019-03-23T03:39:53.394Z,95949.13
2019-03-23T03:43:01.900Z,95951.92
2019-03-23T03:46:09.968Z,95953.41
2019-03-23T03:49:18.187Z,95952.03
2019-03-23T03:52:26.251Z,95958.38
2019-03-23T03:55:34.399Z,95959.53
2019-03-23T03:58:42.484Z,95965.83
2019-03-23T04:01:50.552Z,95966.68
2019-03-23T04:04:58.925Z,95969.84
2019-03-23T04:08:11.699Z,95974.44
2019-03-23T04:11:16.984Z,95971.46
2019-03-23T04:14:24.951Z,95970.69
2019-03-23T04:17:33.157Z,95973.96
2019-03-23T04:20:41.444Z,95972.90
2019-03-23T04:23:49.601Z,95971.25
2019-03-23T04:26:57.703Z,95971.53
2019-03-23T04:30:07.816Z,95964.14
2019-03-23T04:33:16.464Z,95973.22
2019-03-23T04:36:24.688Z,95966.64
2019-03-23T04:39:32.985Z,95973.11
2019-03-23T04:42:41.188Z,95973.86
2019-03-23T04:45:49.354Z,95973.12
2019-03-23T04:48:58.041Z,95976.22
2019-03-23T04:52:06.216Z,95977.31
2019-03-23T04:55:14.852Z,95980.67
2019-03-23T04:58:22.928Z,95987.55
2019-03-23T05:01:31.204Z,95991.31
2019-03-23T05:04:39.279Z,95995.16
2019-03-23T05:07:47.251Z,95996.02
2019-03-23T05:10:57.049Z,95995.55
2019-03-23T05:14:05.387Z,95999.93
2019-03-23T05:17:13.493Z,96002.70
2019-03-23T05:20:27.978Z,96004.12
2019-03-23T05:23:38.268Z,96002.86
2019-03-23T05:26:46.491Z,96003.27
2019-03-23T05:29:54.517Z,95993.66
2019-03-23T05:33:02.840Z,95996.38
2019-03-23T05:36:12.499Z,95996.25
2019-03-23T05:39:21.343Z,95995.50
2019-03-23T05:42:29.596Z,96000.59
2019-03-23T05:45:37.848Z,95998.69
2019-03-23T05:48:46.090Z,95999.61
2019-03-23T05:51:54.662Z,95996.48
2019-03-23T05:55:03.155Z,96005.02
2019-03-23T05:58:11.724Z,96010.05
2019-03-23T06:01:19.690Z,96000.20
2019-03-23T06:04:27.663Z,96005.48
2019-03-23T06:07:35.901Z,96008.58
2019-03-23T06:10:43.876Z,96015.55
2019-03-23T06:13:52.210Z,96012.95
2019-03-23T06:17:00.911Z,96011.39
2019-03-23T06:20:09.415Z,96011.56
2019-03-23T06:23:17.670Z,96012.11
2019-03-23T06:26:26.181Z,96013.38
2019-03-23T06:29:34.970Z,96006.11
2019-03-23T06:32:43.176Z,96002.00
2019-03-23T06:35:51.510Z,95998.86
2019-03-23T06:39:05.417Z,96007.16
2019-03-23T06:42:10.804Z,95995.86
2019-03-23T06:45:19.338Z,95998.37
2019-03-23T06:48:27.411Z,95996.05
2019-03-23T06:51:36.363Z,96001.41
2019-03-23T06:54:44.836Z,96001.41
2019-03-23T06:57:53.096Z,96004.74
2019-03-23T07:01:01.282Z,95993.83
2019-03-23T07:04:09.477Z,96000.97
2019-03-23T07:07:17.797Z,96004.64
2019-03-23T07:10:26.009Z,96002.63
2019-03-23T07:13:34.148Z,96001.22
2019-03-23T07:16:42.662Z,96003.81
2019-03-23T07:19:50.890Z,96006.52
2019-03-23T07:26:08.066Z,96005.84
2019-03-23T07:29:17.075Z,96007.36
2019-03-23T07:32:25.853Z,96006.91
2019-03-23T07:35:34.388Z,96001.76
2019-03-23T07:38:43.370Z,96001.17
2019-03-23T07:41:51.817Z,96002.75
2019-03-23T07:45:00.362Z,95998.11
2019-03-23T07:48:09.566Z,95999.02
2019-03-23T07:51:17.880Z,95999.53
2019-03-23T07:54:26.771Z,95997.32
2019-03-23T07:57:36.398Z,96009.86
2019-03-23T08:00:44.818Z,96010.20
2019-03-23T08:03:53.877Z,96015.20
2019-03-23T08:07:02.554Z,96012.45
2019-03-23T08:10:23.009Z,96010.98
2019-03-23T08:13:31.647Z,96003.51
2019-03-23T08:16:40.114Z,96004.08
2019-03-23T08:19:48.469Z,95999.23
2019-03-23T08:22:58.061Z,96006.02
2019-03-23T08:26:06.627Z,96005.73
2019-03-23T08:29:14.820Z,96008.47
2019-03-23T08:32:22.928Z,96003.37
2019-03-23T08:35:31.004Z,96001.61
2019-03-23T08:38:38.980Z,96000.39
2019-03-23T08:41:47.991Z,95999.91
2019-03-23T08:44:56.519Z,95998.08
2019-03-23T08:48:05.134Z,95992.73
2019-03-23T08:51:13.531Z,95999.05
2019-03-23T08:54:22.662Z,95994.08
2019-03-23T08:57:31.270Z,95994.98
2019-03-23T09:00:40.032Z,95995.44
2019-03-23T09:03:52.300Z,95997.59
2019-03-23T09:06:57.894Z,95994.39
2019-03-23T09:10:07.150Z,95993.61
2019-03-23T09:13:15.728Z,95993.29
2019-03-23T09:16:23.948Z,96000.05
2019-03-23T09:19:32.908Z,95993.55
2019-03-23T09:22:41.763Z,95986.66
2019-03-23T09:25:50.547Z,95988.52
2019-03-23T09:28:59.067Z,95980.70
2019-03-23T09:32:07.583Z,95983.09
2019-03-23T09:35:15.722Z,95989.48
2019-03-23T09:38:25.045Z,95986.06
2019-03-23T09:41:33.552Z,95987.81
2019-03-23T09:44:41.868Z,95985.17
2019-03-23T09:47:50.521Z,95983.50
2019-03-23T09:50:59.127Z,95988.38
2019-03-23T09:54:08.533Z,95979.35
2019-03-23T09:57:17.401Z,95980.33
2019-03-23T10:00:26.328Z,95974.34
2019-03-23T10:03:34.630Z,95972.70
2019-03-23T10:06:43.759Z,95965.66
2019-03-23T10:09:53.699Z,95961.00
2019-03-23T10:13:02.244Z,95958.21
2019-03-23T10:16:10.296Z,95959.47
2019-03-23T10:19:20.335Z,95953.52
2019-03-23T10:22:28.429Z,95953.48
2019-03-23T10:25:37.092Z,95952.82
2019-03-23T10:28:45.622Z,95952.63
2019-03-23T10:31:55.796Z,95953.77
2019-03-23T10:35:06.154Z,95945.81
2019-03-23T10:38:14.463Z,95944.22
2019-03-23T10:41:24.231Z,95941.59
2019-03-23T10:44:33.604Z,95937.28
2019-03-23T10:47:42.200Z,95941.45
2019-03-23T10:50:50.828Z,95940.34
2019-03-23T10:54:04.036Z,95936.89
2019-03-23T10:57:13.245Z,95927.66
2019-03-23T11:00:22.139Z,95936.64
2019-03-23T11:03:31.766Z,95925.85
2019-03-23T11:06:40.259Z,95920.50
2019-03-23T11:09:48.830Z,95915.50
2019-03-23T11:12:57.440Z,95917.58
2019-03-23T11:16:05.847Z,95918.79
2019-03-23T11:19:14.476Z,95914.48
2019-03-23T11:22:22.623Z,95904.33
2019-03-23T11:25:30.980Z,95899.17
2019-03-23T11:28:39.646Z,95904.48
2019-03-23T11:31:47.922Z,95897.62
2019-03-23T11:34:56.577Z,95895.82
2019-03-23T11:38:05.126Z,95889.27
2019-03-23T11:41:13.530Z,95888.14
2019-03-23T11:44:22.171Z,95880.65
2019-03-23T11:47:31.128Z,95871.94
2019-03-23T11:50:39.987Z,95875.16
2019-03-23T11:53:48.694Z,95872.99
2019-03-23T11:56:57.838Z,95869.53
2019-03-23T12:00:10.073Z,95866.84
2019-03-23T12:03:18.946Z,95863.63
2019-03-23T12:06:27.681Z,95864.80
2019-03-23T12:09:36.321Z,95861.69
2019-03-23T12:12:44.557Z,95857.69
2019-03-23T12:15:53.066Z,95855.95
2019-03-23T12:19:01.616Z,95855.94
2019-03-23T12:22:10.392Z,95851.21
2019-03-23T12:25:18.657Z,95855.03
2019-03-23T12:28:27.168Z,95849.88
2019-03-23T12:31:35.761Z,95849.50
2019-03-23T12:34:44.152Z,95842.22
2019-03-23T12:37:58.640Z,95837.78
2019-03-23T12:41:18.487Z,95830.34
2019-03-23T12:44:18.223Z,95832.59
2019-03-23T12:47:27.250Z,95830.03
2019-03-23T12:50:36.176Z,95824.84
2019-03-23T12:53:44.876Z,95823.34
2019-03-23T12:56:54.217Z,95825.25
2019-03-23T13:00:03.704Z,95823.78
2019-03-23T13:03:11.959Z,95822.00
2019-03-23T13:06:20.116Z,95815.98
2019-03-23T13:09:28.727Z,95824.13
2019-03-23T13:12:37.984Z,95822.91
2019-03-23T13:15:46.393Z,95821.42
2019-03-23T13:18:55.173Z,95811.97
2019-03-23T13:22:03.997Z,95813.88
2019-03-23T13:25:12.296Z,95814.66
2019-03-23T13:28:20.971Z,95810.41
2019-03-23T13:31:29.540Z,95808.86
2019-03-23T13:34:37.896Z,95807.78
2019-03-23T13:37:47.609Z,95798.45
2019-03-23T13:40:56.603Z,95797.95
2019-03-23T13:44:05.841Z,95796.69
2019-03-23T13:47:17.235Z,95795.26
2019-03-23T13:50:29.599Z,95791.39
2019-03-23T13:53:38.126Z,95789.01
2019-03-23T13:56:46.594Z,95792.59
2019-03-23T13:59:55.443Z,95778.56
2019-03-23T14:03:04.139Z,95787.33
2019-03-23T14:06:13.004Z,95788.63
2019-03-23T14:09:21.642Z,95788.83
2019-03-23T14:12:30.421Z,95782.25
2019-03-23T14:15:38.763Z,95775.66
2019-03-23T14:18:47.562Z,95775.96
2019-03-23T14:21:57.008Z,95770.63
2019-03-23T14:25:06.637Z,95766.58
2019-03-23T14:28:15.020Z,95767.14
2019-03-23T14:31:24.570Z,95766.80
2019-03-23T14:34:32.933Z,95764.25
2019-03-23T14:37:41.241Z,95763.52
2019-03-23T14:40:49.398Z,95760.19
2019-03-23T14:43:57.936Z,95765.52
2019-03-23T14:47:06.429Z,95765.34
2019-03-23T14:50:15.323Z,95763.78
2019-03-23T14:53:24.524Z,95763.47
2019-03-23T14:56:33.320Z,95765.78
2019-03-23T14:59:41.715Z,95768.98
2019-03-23T15:02:50.340Z,95762.83
2019-03-23T15:05:58.573Z,95768.06
2019-03-23T15:09:07.880Z,95771.23
2019-03-23T15:12:16.948Z,95765.13
2019-03-23T15:15:25.363Z,95767.34
2019-03-23T15:18:33.944Z,95767.55
2019-03-23T15:21:42.427Z,95770.10
2019-03-23T15:24:50.585Z,95767.91
2019-03-23T15:27:58.698Z,95767.55
2019-03-23T15:31:10.434Z,95765.30
2019-03-23T15:34:19.337Z,95770.53
2019-03-23T15:37:27.431Z,95769.32
2019-03-23T15:40:36.401Z,95760.30
2019-03-23T15:43:44.899Z,95760.20
2019-03-23T15:46:53.341Z,95756.20
2019-03-23T15:50:01.588Z,95760.86
2019-03-23T15:53:09.839Z,95753.94
2019-03-23T15:56:17.858Z,95760.28
2019-03-23T15:59:26.287Z,95755.35
2019-03-23T16:02:34.580Z,95755.66
2019-03-23T16:05:42.867Z,95754.67
2019-03-23T16:08:51.026Z,95750.67
2019-03-23T16:11:59.980Z,95750.73
2019-03-23T16:15:09.873Z,95754.03
2019-03-23T16:18:18.095Z,95751.80
2019-03-23T16:21:26.610Z,95756.84
2019-03-23T16:24:34.849Z,95759.03
2019-03-23T16:27:43.343Z,95757.70
2019-03-23T16:30:51.532Z,95761.09
2019-03-23T16:34:00.193Z,95762.39
2019-03-23T16:37:08.903Z,95770.40
2019-03-23T16:40:17.557Z,95766.42
2019-03-23T16:43:26.119Z,95771.14
2019-03-23T16:46:34.485Z,95771.69
2019-03-23T16:49:42.851Z,95770.94
2019-03-23T16:52:51.109Z,95771.11
2019-03-23T16:55:59.661Z,95774.47
2019-03-23T16:59:08.443Z,95775.49
2019-03-23T17:02:16.634Z,95768.75
2019-03-23T17:05:25.226Z,95768.66
2019-03-23T17:08:33.627Z,95773.56
2019-03-23T17:11:41.816Z,95771.20
2019-03-23T17:14:50.019Z,95770.09
2019-03-23T17:17:58.035Z,95766.73
2019-03-23T17:21:06.240Z,95774.98
2019-03-23T17:24:14.450Z,95771.66
2019-03-23T17:27:22.777Z,95773.85
2019-03-23T17:30:31.491Z,95770.72
2019-03-23T17:33:39.944Z,95775.47
2019-03-23T17:36:48.161Z,95782.55
2019-03-23T17:39:56.349Z,95785.23
2019-03-23T17:43:06.226Z,95789.92
2019-03-23T17:46:14.407Z,95788.30
2019-03-23T17:49:22.716Z,95791.53
2019-03-23T17:52:31.660Z,95794.67
2019-03-23T17:55:40.300Z,95802.41
2019-03-23T17:58:49.420Z,95797.08
2019-03-23T18:01:58.653Z,95802.14
2019-03-23T18:05:07.924Z,95805.34
2019-03-23T18:08:16.604Z,95805.61
2019-03-23T18:11:25.141Z,95802.69
2019-03-23T18:14:33.570Z,95806.99
2019-03-23T18:17:41.910Z,95806.31
2019-03-23T18:20:50.168Z,95813.19
2019-03-23T18:23:58.702Z,95816.23
2019-03-23T18:27:06.880Z,95827.24
2019-03-23T18:30:38.926Z,95825.45
2019-03-23T18:33:47.430Z,95836.58
2019-03-23T18:36:57.054Z,95835.08
2019-03-23T18:40:08.175Z,95837.61
2019-03-23T18:43:26.704Z,95835.77
2019-03-23T18:46:26.624Z,95841.72
2019-03-23T18:49:35.234Z,95842.58
2019-03-23T18:52:43.759Z,95838.27
2019-03-23T18:55:52.366Z,95847.41
2019-03-23T18:59:01.837Z,95848.17
2019-03-23T19:02:10.534Z,95851.92
2019-03-23T19:05:19.256Z,95856.52
2019-03-23T19:08:27.979Z,95857.41
2019-03-23T19:11:36.416Z,95858.38
2019-03-23T19:14:45.014Z,95862.70
2019-03-23T19:17:53.340Z,95862.08
2019-03-23T19:21:02.429Z,95867.53
2019-03-23T19:24:11.027Z,95864.58
2019-03-23T19:27:19.581Z,95862.56
2019-03-23T19:30:28.308Z,95872.19
2019-03-23T19:33:36.629Z,95869.70
2019-03-23T19:36:44.738Z,95866.94
2019-03-23T19:39:53.531Z,95869.53
2019-03-23T19:43:01.988Z,95867.59
2019-03-23T19:46:10.840Z,95869.14
2019-03-23T19:49:19.207Z,95868.38
2019-03-23T19:52:27.597Z,95871.92
2019-03-23T19:55:36.389Z,95877.33
2019-03-23T19:58:45.411Z,95885.43
2019-03-23T20:01:53.888Z,95882.87
2019-03-23T20:05:03.071Z,95881.06
2019-03-23T20:08:12.083Z,95877.45
2019-03-23T20:11:20.773Z,95875.61
2019-03-23T20:14:29.746Z,95876.49
2019-03-23T20:17:38.981Z,95876.92
2019-03-23T20:20:47.679Z,95884.20
2019-03-23T20:23:56.636Z,95876.52
2019-03-23T20:27:05.056Z,95878.89
2019-03-23T20:30:16.305Z,95882.85
2019-03-23T20:33:24.700Z,95881.26
2019-03-23T20:36:32.951Z,95882.61
2019-03-23T20:39:41.845Z,95876.94
2019-03-23T20:42:50.613Z,95879.48
2019-03-23T20:45:59.672Z,95875.88
2019-03-23T20:49:08.003Z,95881.89
2019-03-23T20:52:16.761Z,95876.75
2019-03-23T20:55:30.130Z,95875.36
2019-03-23T20:58:38.699Z,95878.33
2019-03-23T21:01:47.639Z,95881.58
2019-03-23T21:04:56.192Z,95878.47
2019-03-23T21:08:05.171Z,95880.90
2019-03-23T21:11:13.858Z,95877.25
2019-03-23T21:14:22.495Z,95870.61
2019-03-23T21:17:30.957Z,95870.14
2019-03-23T21:20:39.372Z,95877.00
2019-03-23T21:23:48.250Z,95868.63
2019-03-23T21:26:56.812Z,95865.48
2019-03-23T21:30:08.911Z,95865.52
2019-03-23T21:33:17.539Z,95857.91
2019-03-23T21:36:26.902Z,95861.29
2019-03-23T21:39:35.048Z,95854.02
2019-03-23T21:42:43.373Z,95853.80
2019-03-23T21:45:51.863Z,95846.20
2019-03-23T21:49:03.050Z,95846.47
2019-03-23T21:52:12.149Z,95848.75
2019-03-23T21:55:20.523Z,95850.42
2019-03-23T21:58:29.218Z,95844.16
2019-03-23T22:01:37.597Z,95842.31
2019-03-23T22:04:46.267Z,95839.11
2019-03-23T22:07:55.085Z,95844.89
2019-03-23T22:11:03.700Z,95840.10
2019-03-23T22:14:12.027Z,95837.56
2019-03-23T22:17:20.330Z,95838.72
2019-03-23T22:20:31.756Z,95835.30
2019-03-23T22:23:41.956Z,95834.83
2019-03-23T22:26:50.887Z,95832.41
2019-03-23T22:29:59.342Z,95837.14
2019-03-23T22:33:10.817Z,95832.13
2019-03-23T22:36:19.140Z,95828.10
2019-03-23T22:39:27.668Z,95825.30
2019-03-23T22:42:36.608Z,95821.09
2019-03-23T22:45:45.399Z,95820.86
2019-03-23T22:48:56.003Z,95822.80
2019-03-23T22:52:05.003Z,95816.48
2019-03-23T22:55:13.217Z,95816.44
2019-03-23T22:58:21.798Z,95814.33
2019-03-23T23:01:30.111Z,95811.73
2019-03-23T23:04:38.679Z,95811.02
2019-03-23T23:07:47.165Z,95811.81
2019-03-23T23:10:56.190Z,95808.96
2019-03-23T23:14:04.898Z,95802.87
2019-03-23T23:17:13.460Z,95798.47
2019-03-23T23:20:21.956Z,95797.42
2019-03-23T23:23:30.792Z,95790.38
2019-03-23T23:26:39.147Z,95788.52
2019-03-23T23:29:47.547Z,95787.00
2019-03-23T23:32:56.088Z,95783.05
2019-03-23T23:36:04.801Z,95785.19
2019-03-23T23:39:13.140Z,95781.50
2019-03-23T23:42:21.391Z,95778.14
2019-03-23T23:45:29.614Z,95779.22
2019-03-23T23:48:37.754Z,95778.31
2019-03-23T23:51:50.069Z,95768.94
2019-03-23T23:54:56.145Z,95774.19
2019-03-23T23:58:05.167Z,95772.14
